Terminal Aerodrome Forecast
Issued by NWS

Home | Current Version | Previous Version | Text Only | Print | Product List | Glossary On
Versions: 1 2 3 4 5 6 7 8 9 10 11 12 13 14 15
787
FTPA31 PHFO 202336
TAFHJR
TAF
PHJR 202336Z 2100/2124 06012G24KT P6SM FEW035 SCT045
     FM210400 05008KT P6SM FEW040
     FM212100 06016G24KT P6SM FEW030 SCT050=

USA.gov is the U.S. government's official web portal to all federal, state and local government web resources and services.